Time;durP1;ratioP1;P1;durP2;ratioP2;P2;SDS_P1;SDS_P2;PMS_P1;PMS_P2;Temp;Humidity;BMP_temperature;BMP_pressure;BME280_temperature;BME280_humidity;BME280_pressure;Samples;Min_cycle;Max_cycle;Signal;HPM_P1;HPM_P2
2023/06/25 00:01:50;;;;;;;1999.90;999.90;;;19.60;99.90;;;;;;4938647;29;20062;-76
2023/06/25 00:04:16;;;;;;;1999.90;999.90;;;19.60;99.90;;;;;;4938560;29;20135;-76
2023/06/25 00:06:42;;;;;;;1999.90;999.90;;;19.60;99.90;;;;;;4921604;29;20054;-76
2023/06/25 00:09:07;;;;;;;1999.90;999.90;;;19.50;99.90;;;;;;4937628;29;20374;-75
2023/06/25 00:11:33;;;;;;;1999.90;999.90;;;19.50;99.90;;;;;;4937270;29;20047;-75
2023/06/25 00:13:59;;;;;;;1999.90;999.90;;;19.50;99.90;;;;;;4937117;29;20087;-75
2023/06/25 00:16:25;;;;;;;1999.90;999.90;;;19.50;99.90;;;;;;4937339;29;20051;-76
2023/06/25 00:18:51;;;;;;;1999.90;999.90;;;19.50;99.90;;;;;;4921739;29;20051;-76
2023/06/25 00:21:16;;;;;;;1999.90;999.90;;;19.40;99.90;;;;;;4938397;29;20051;-76
2023/06/25 00:23:42;;;;;;;1999.90;999.90;;;19.40;99.90;;;;;;4938185;29;20048;-76
2023/06/25 00:26:08;;;;;;;1999.90;999.90;;;19.40;99.90;;;;;;4921464;29;20141;-76
2023/06/25 00:28:34;;;;;;;1999.90;999.90;;;19.40;99.90;;;;;;4937373;29;20102;-76
2023/06/25 00:30:59;;;;;;;1999.90;999.90;;;19.40;99.90;;;;;;4938139;29;20102;-75
2023/06/25 00:33:25;;;;;;;1999.90;999.90;;;19.40;99.90;;;;;;4937967;29;20083;-76
2023/06/25 00:35:51;;;;;;;1999.90;999.90;;;19.40;99.90;;;;;;4937324;29;20091;-76
2023/06/25 00:38:20;;;;;;;1999.90;999.90;;;19.40;99.90;;;;;;4937193;29;20499;-75
2023/06/25 00:40:45;;;;;;;1999.90;999.90;;;19.40;99.90;;;;;;4920877;29;20444;-76
2023/06/25 00:43:15;;;;;;;1999.90;999.90;;;19.40;99.90;;;;;;4920890;29;20059;-75
2023/06/25 00:45:42;;;;;;;1999.90;999.90;;;19.30;99.90;;;;;;4937778;29;20492;-76
2023/06/25 00:48:07;;;;;;;1999.90;999.90;;;19.30;99.90;;;;;;4937441;29;20079;-75
2023/06/25 00:50:33;;;;;;;1999.90;999.90;;;19.30;99.90;;;;;;4936910;29;20444;-76
2023/06/25 00:53:01;;;;;;;1999.90;999.90;;;19.30;99.90;;;;;;4920860;29;20051;-77
2023/06/25 00:55:28;;;;;;;1999.90;999.90;;;19.30;99.90;;;;;;4936443;29;20136;-75
2023/06/25 00:57:55;;;;;;;1999.90;999.90;;;19.30;99.90;;;;;;4937425;29;20506;-75
2023/06/25 01:00:24;;;;;;;1999.90;999.90;;;19.20;99.90;;;;;;4936104;29;20048;-75
2023/06/25 01:03:15;;;;;;;1999.90;999.90;;;19.20;99.90;;;;;;4937630;29;20531;-75
2023/06/25 01:05:57;;;;;;;1999.90;999.90;;;19.20;99.90;;;;;;4920719;29;20139;-75
2023/06/25 01:08:28;;;;;;;1999.90;999.90;;;19.20;99.90;;;;;;4937563;29;20058;-76
2023/06/25 01:10:55;;;;;;;1999.90;999.90;;;19.20;99.90;;;;;;4937515;29;20323;-74
2023/06/25 01:13:21;;;;;;;1999.90;999.90;;;19.20;99.90;;;;;;4936690;29;20126;-75
2023/06/25 01:15:47;;;;;;;1999.90;999.90;;;19.20;99.90;;;;;;4920301;29;20055;-76
2023/06/25 01:18:14;;;;;;;1999.90;999.90;;;19.10;99.90;;;;;;4936139;29;20047;-75
2023/06/25 01:20:40;;;;;;;1999.90;999.90;;;19.10;99.90;;;;;;4936192;29;20082;-75
2023/06/25 01:23:09;;;;;;;1999.90;999.90;;;19.10;99.90;;;;;;4936911;29;20055;-76
2023/06/25 01:25:38;;;;;;;1999.90;999.90;;;19.10;99.90;;;;;;4937175;29;20067;-76
2023/06/25 01:28:07;;;;;;;1999.90;999.90;;;19.00;99.90;;;;;;4937038;29;20527;-75
2023/06/25 01:30:32;;;;;;;1999.90;999.90;;;19.00;99.90;;;;;;4936520;29;20056;-76
2023/06/25 01:32:58;;;;;;;1999.90;999.90;;;19.00;99.90;;;;;;4920307;29;20445;-75
2023/06/25 01:35:25;;;;;;;1999.90;999.90;;;19.00;99.90;;;;;;4936830;29;20040;-76
2023/06/25 01:37:51;;;;;;;1999.90;999.90;;;18.90;99.90;;;;;;4937170;29;20117;-75
2023/06/25 01:40:17;;;;;;;1999.90;999.90;;;18.90;99.90;;;;;;4935264;29;20130;-75
2023/06/25 01:42:43;;;;;;;1999.90;999.90;;;18.90;99.90;;;;;;4935774;29;20045;-76
2023/06/25 01:45:11;;;;;;;1999.90;999.90;;;18.80;99.90;;;;;;4936707;29;20484;-76
2023/06/25 01:47:37;;;;;;;1999.90;999.90;;;18.80;99.90;;;;;;4935508;29;20448;-76
2023/06/25 01:50:04;;;;;;;1999.90;999.90;;;18.80;99.90;;;;;;4935349;29;20051;-76
2023/06/25 01:52:30;;;;;;;1999.90;999.90;;;18.80;99.90;;;;;;4935059;29;20056;-77
2023/06/25 01:54:56;;;;;;;1999.90;999.90;;;18.80;99.90;;;;;;4935739;29;20048;-75
2023/06/25 01:57:22;;;;;;;1999.90;999.90;;;18.80;99.90;;;;;;4919825;29;20107;-75
2023/06/25 01:59:47;;;;;;;1999.90;999.90;;;18.80;99.90;;;;;;4936035;29;20043;-75
2023/06/25 02:02:13;;;;;;;1999.90;999.90;;;18.70;99.90;;;;;;4935502;29;20075;-75
2023/06/25 02:04:39;;;;;;;1999.90;999.90;;;18.70;99.90;;;;;;4919465;29;20055;-75
2023/06/25 02:07:05;;;;;;;1999.90;999.90;;;18.70;99.90;;;;;;4936550;29;20090;-78
2023/06/25 02:09:30;;;;;;;1999.90;999.90;;;18.70;99.90;;;;;;4935510;29;20102;-76
2023/06/25 02:11:56;;;;;;;1999.90;999.90;;;18.70;99.90;;;;;;4935224;29;20047;-76
2023/06/25 02:14:22;;;;;;;1999.90;999.90;;;18.60;99.90;;;;;;4925657;29;20120;-75
2023/06/25 02:16:47;;;;;;;1999.90;999.90;;;18.60;99.90;;;;;;4916111;29;20054;-76
2023/06/25 02:19:13;;;;;;;1999.90;999.90;;;18.60;99.90;;;;;;4916193;29;20485;-76
2023/06/25 02:21:39;;;;;;;1999.90;999.90;;;18.60;99.90;;;;;;4917552;29;20059;-75
2023/06/25 02:24:05;;;;;;;1999.90;999.90;;;18.60;99.90;;;;;;4917302;29;20102;-74
2023/06/25 02:26:31;;;;;;;1999.90;999.90;;;18.60;99.90;;;;;;4917133;29;20055;-75
2023/06/25 02:28:57;;;;;;;1999.90;999.90;;;18.60;99.90;;;;;;4916643;29;20056;-75
2023/06/25 02:31:22;;;;;;;1999.90;999.90;;;18.50;99.90;;;;;;4916211;29;20131;-75
2023/06/25 02:33:48;;;;;;;1999.90;999.90;;;18.50;99.90;;;;;;4900354;29;20484;-74
2023/06/25 02:36:14;;;;;;;1999.90;999.90;;;18.50;99.90;;;;;;4916307;29;20135;-75
2023/06/25 02:38:40;;;;;;;1999.90;999.90;;;18.50;99.90;;;;;;4917430;29;20436;-75
2023/06/25 02:41:05;;;;;;;1999.90;999.90;;;18.50;99.90;;;;;;4916068;29;20055;-76
2023/06/25 02:43:31;;;;;;;1999.90;999.90;;;18.50;99.90;;;;;;4916151;29;20052;-75
2023/06/25 02:45:57;;;;;;;1999.90;999.90;;;18.50;99.90;;;;;;4917003;29;20048;-76
2023/06/25 02:48:23;;;;;;;1999.90;999.90;;;18.50;99.90;;;;;;4916116;29;20048;-75
2023/06/25 02:50:49;;;;;;;1999.90;999.90;;;18.50;99.90;;;;;;4916218;29;20393;-76
2023/06/25 02:53:14;;;;;;;1999.90;999.90;;;18.60;99.90;;;;;;4917040;29;20048;-75
2023/06/25 02:55:41;;;;;;;1999.90;999.90;;;18.60;99.90;;;;;;4916971;29;20059;-76
2023/06/25 02:58:06;;;;;;;1999.90;999.90;;;18.60;99.90;;;;;;4915709;29;20052;-75
2023/06/25 03:00:32;;;;;;;1999.90;999.90;;;18.60;99.90;;;;;;4916463;29;20056;-75
2023/06/25 03:02:58;;;;;;;1999.90;999.90;;;18.60;99.90;;;;;;4918592;29;20091;-75
2023/06/25 03:05:24;;;;;;;1999.90;999.90;;;18.60;99.90;;;;;;4920702;29;20055;-75
2023/06/25 03:07:57;;;;;;;1999.90;999.90;;;18.60;99.90;;;;;;4921303;29;20044;-75
2023/06/25 03:10:28;;;;;;;1999.90;999.90;;;18.60;99.90;;;;;;4920624;29;20047;-78
2023/06/25 03:12:54;;;;;;;1999.90;999.90;;;18.60;99.90;;;;;;4919545;29;20054;-76
2023/06/25 03:15:20;;;;;;;1999.90;999.90;;;18.60;99.90;;;;;;4920361;29;20085;-76
2023/06/25 03:17:45;;;;;;;1999.90;999.90;;;18.60;99.90;;;;;;4903577;29;20138;-76
2023/06/25 03:20:12;;;;;;;1999.90;999.90;;;18.50;99.90;;;;;;4903788;29;20059;-75
2023/06/25 03:22:38;;;;;;;1999.90;999.90;;;18.50;99.90;;;;;;4920430;29;20048;-76
2023/06/25 03:25:04;;;;;;;1999.90;999.90;;;18.50;99.90;;;;;;4903724;29;20134;-76
2023/06/25 03:27:34;;;;;;;1999.90;999.90;;;18.50;99.90;;;;;;4919331;29;20052;-77
2023/06/25 03:30:00;;;;;;;1999.90;999.90;;;18.50;99.90;;;;;;4918571;29;20135;-76
2023/06/25 03:32:25;;;;;;;1999.90;999.90;;;18.50;99.90;;;;;;4920329;29;20140;-76
2023/06/25 03:34:51;;;;;;;1999.90;999.90;;;18.40;99.90;;;;;;4919439;29;20139;-75
2023/06/25 03:37:17;;;;;;;1999.90;999.90;;;18.50;99.90;;;;;;4919081;29;20129;-74
2023/06/25 03:39:43;;;;;;;1999.90;999.90;;;18.40;99.90;;;;;;4919047;29;20051;-76
2023/06/25 03:42:09;;;;;;;1999.90;999.90;;;18.50;99.90;;;;;;4887804;29;20370;-76
2023/06/25 03:44:34;;;;;;;1999.90;999.90;;;18.50;99.90;;;;;;4918781;29;20083;-75
2023/06/25 03:47:00;;;;;;;1999.90;999.90;;;18.50;99.90;;;;;;4919844;29;20048;-76
2023/06/25 03:49:26;;;;;;;1999.90;999.90;;;18.50;99.90;;;;;;4920013;29;20052;-75
2023/06/25 03:51:52;;;;;;;1999.90;999.90;;;18.50;99.90;;;;;;4919971;29;20092;-76
2023/06/25 03:54:18;;;;;;;1999.90;999.90;;;18.50;99.90;;;;;;4919727;29;20040;-76
2023/06/25 03:56:43;;;;;;;1999.90;999.90;;;18.50;99.90;;;;;;4918845;29;20552;-76
2023/06/25 03:59:09;;;;;;;1999.90;999.90;;;18.50;99.90;;;;;;4919117;29;20081;-75
2023/06/25 04:01:35;;;;;;;1999.90;999.90;;;18.50;99.90;;;;;;4918327;29;20056;-75
2023/06/25 04:04:00;;;;;;;1999.90;999.90;;;18.50;99.90;;;;;;4919655;29;20044;-75
2023/06/25 04:06:26;;;;;;;1999.90;999.90;;;18.60;99.90;;;;;;4902806;29;20481;-74
2023/06/25 04:08:51;;;;;;;1999.90;999.90;;;18.60;99.90;;;;;;4919550;29;20048;-75
2023/06/25 04:11:17;;;;;;;1999.90;999.90;;;18.60;99.90;;;;;;4919834;29;20134;-74
2023/06/25 04:13:43;;;;;;;1999.90;999.90;;;18.70;99.90;;;;;;4917848;29;20404;-75
2023/06/25 04:16:09;;;;;;;1999.90;999.90;;;18.70;99.90;;;;;;4918046;29;20501;-75
2023/06/25 04:18:37;;;;;;;1999.90;999.90;;;18.70;99.90;;;;;;4918678;29;20473;-76
2023/06/25 04:21:04;;;;;;;1999.90;999.90;;;18.80;99.90;;;;;;4918456;29;20111;-76
2023/06/25 04:23:30;;;;;;;1999.90;999.90;;;18.80;99.90;;;;;;4918340;29;20059;-76
2023/06/25 04:25:55;;;;;;;1999.90;999.90;;;18.80;99.90;;;;;;4902594;29;20052;-75
2023/06/25 04:28:21;;;;;;;1999.90;999.90;;;18.90;99.90;;;;;;4919491;29;20052;-75
2023/06/25 04:30:47;;;;;;;1999.90;999.90;;;18.90;99.90;;;;;;4918535;29;20588;-75
2023/06/25 04:33:12;;;;;;;1999.90;999.90;;;19.00;99.90;;;;;;4918055;29;20044;-75
2023/06/25 04:35:38;;;;;;;1999.90;999.90;;;19.00;99.90;;;;;;4918022;29;20055;-75
2023/06/25 04:38:04;;;;;;;1999.90;999.90;;;19.00;99.90;;;;;;4918509;29;20094;-76
2023/06/25 04:40:30;;;;;;;1999.90;999.90;;;19.00;99.90;;;;;;4917981;29;20048;-76
2023/06/25 04:42:56;;;;;;;1999.90;999.90;;;19.00;99.90;;;;;;4917783;29;20539;-75
2023/06/25 04:45:22;;;;;;;1999.90;999.90;;;19.10;99.90;;;;;;4918902;29;20044;-75
2023/06/25 04:47:47;;;;;;;1999.90;999.90;;;19.10;99.90;;;;;;4918860;29;20052;-75
2023/06/25 04:50:13;;;;;;;1999.90;999.90;;;19.20;99.90;;;;;;4918863;29;20051;-76
2023/06/25 04:52:39;;;;;;;1999.90;999.90;;;19.20;99.90;;;;;;4918951;29;20095;-76
2023/06/25 04:55:05;;;;;;;1999.90;999.90;;;19.20;99.90;;;;;;4917634;29;20052;-76
2023/06/25 04:57:31;;;;;;;1999.90;999.90;;;19.20;99.90;;;;;;4918832;29;20441;-76
2023/06/25 04:59:57;;;;;;;1999.90;999.90;;;19.30;99.90;;;;;;4916837;29;20080;-76
2023/06/25 05:02:23;;;;;;;1999.90;999.90;;;19.30;99.90;;;;;;4918805;29;20048;-76
2023/06/25 05:04:48;;;;;;;1999.90;999.90;;;19.30;99.90;;;;;;4917377;29;20044;-75
2023/06/25 05:07:14;;;;;;;1999.90;999.90;;;19.30;99.90;;;;;;4917579;29;20511;-75
2023/06/25 05:09:40;;;;;;;1999.90;999.90;;;19.40;99.90;;;;;;4901465;29;20462;-75
2023/06/25 05:12:06;;;;;;;1999.90;999.90;;;19.40;99.90;;;;;;4918412;29;20047;-75
2023/06/25 05:14:31;;;;;;;1999.90;999.90;;;19.40;99.90;;;;;;4918153;29;20080;-75
2023/06/25 05:16:57;;;;;;;1999.90;999.90;;;19.50;99.90;;;;;;4918385;29;20384;-75
2023/06/25 05:19:23;;;;;;;1999.90;999.90;;;19.60;99.90;;;;;;4918300;29;20048;-75
2023/06/25 05:21:49;;;;;;;1999.90;999.90;;;19.50;99.90;;;;;;4918253;29;20040;-75
2023/06/25 05:24:14;;;;;;;1999.90;999.90;;;19.60;99.90;;;;;;4918184;29;20058;-74
2023/06/25 05:26:40;;;;;;;1999.90;999.90;;;19.60;99.90;;;;;;4915788;29;20512;-74
2023/06/25 05:29:06;;;;;;;1999.90;999.90;;;19.70;99.90;;;;;;4916731;29;20063;-74
2023/06/25 05:31:31;;;;;;;1999.90;999.90;;;19.70;99.90;;;;;;4918387;29;20044;-74
2023/06/25 05:33:57;;;;;;;1999.90;999.90;;;19.80;99.90;;;;;;4918416;29;20500;-74
2023/06/25 05:36:23;;;;;;;1999.90;999.90;;;19.80;99.90;;;;;;4917970;29;20059;-75
2023/06/25 05:38:49;;;;;;;1999.90;999.90;;;19.80;99.90;;;;;;4916828;29;20103;-74
2023/06/25 05:41:14;;;;;;;1999.90;999.90;;;19.80;99.90;;;;;;4901221;29;20056;-75
2023/06/25 05:43:40;;;;;;;1999.90;999.90;;;19.80;99.90;;;;;;4916789;29;20052;-74
2023/06/25 05:46:11;;;;;;;1999.90;999.90;;;19.90;99.90;;;;;;4918043;29;20048;-74
2023/06/25 05:48:40;;;;;;;1999.90;999.90;;;19.90;99.90;;;;;;4917926;29;20468;-74
2023/06/25 05:51:06;;;;;;;1999.90;999.90;;;19.90;99.90;;;;;;4916743;29;20130;-74
2023/06/25 05:53:40;;;;;;;1999.90;999.90;;;20.00;99.90;;;;;;4917688;29;20128;-74
2023/06/25 05:56:06;;;;;;;1999.90;999.90;;;20.00;99.90;;;;;;4917401;29;20055;-74
2023/06/25 05:58:36;;;;;;;1999.90;999.90;;;20.00;99.90;;;;;;4916434;29;20397;-74
2023/06/25 06:01:04;;;;;;;1999.90;999.90;;;20.10;99.90;;;;;;4917446;29;20056;-71
2023/06/25 06:03:30;;;;;;;1999.90;999.90;;;20.10;99.90;;;;;;4916866;29;20048;-74
2023/06/25 06:05:57;;;;;;;1999.90;999.90;;;20.10;99.90;;;;;;4917541;29;20548;-74
2023/06/25 06:08:23;;;;;;;1999.90;999.90;;;20.20;99.90;;;;;;4916308;29;20055;-74
2023/06/25 06:10:49;;;;;;;1999.90;999.90;;;20.20;99.90;;;;;;4917448;29;20048;-74
2023/06/25 06:13:15;;;;;;;1999.90;999.90;;;20.20;99.90;;;;;;4901162;29;20058;-75
2023/06/25 06:15:41;;;;;;;1999.90;999.90;;;20.30;99.90;;;;;;4917461;29;20052;-74
2023/06/25 06:18:07;;;;;;;1999.90;999.90;;;20.30;99.90;;;;;;4900650;29;20055;-73
2023/06/25 06:20:33;;;;;;;1999.90;999.90;;;20.40;99.90;;;;;;4900834;29;20087;-74
2023/06/25 06:23:01;;;;;;;1999.90;999.90;;;20.40;99.90;;;;;;4916231;29;20405;-74
2023/06/25 06:25:27;;;;;;;1999.90;999.90;;;20.50;99.90;;;;;;4916079;29;20088;-73
2023/06/25 06:27:54;;;;;;;1999.90;999.90;;;20.50;99.90;;;;;;4917199;29;20064;-74
2023/06/25 06:30:21;;;;;;;1999.90;999.90;;;20.50;99.90;;;;;;4916828;29;20048;-74
2023/06/25 06:32:47;;;;;;;1999.90;999.90;;;20.60;99.90;;;;;;4916153;29;20048;-74
2023/06/25 06:35:13;;;;;;;1999.90;999.90;;;20.60;99.90;;;;;;4916388;29;20531;-74
2023/06/25 06:37:38;;;;;;;1999.90;999.90;;;20.70;99.90;;;;;;4916973;29;20055;-74
2023/06/25 06:40:05;;;;;;;1999.90;999.90;;;20.70;99.90;;;;;;4900463;29;20047;-74
2023/06/25 06:42:31;;;;;;;1999.90;999.90;;;20.80;99.90;;;;;;4917197;29;20062;-74
2023/06/25 06:44:56;;;;;;;1999.90;999.90;;;20.80;99.90;;;;;;4915945;29;20451;-73
2023/06/25 06:47:22;;;;;;;1999.90;999.90;;;20.90;99.90;;;;;;4900418;29;20052;-74
2023/06/25 06:49:47;;;;;;;1999.90;999.90;;;20.90;99.90;;;;;;4917080;29;20040;-74
2023/06/25 06:52:15;;;;;;;1999.90;999.90;;;21.00;99.90;;;;;;4917015;29;20552;-74
2023/06/25 06:54:41;;;;;;;1999.90;999.90;;;21.00;99.90;;;;;;4900333;29;20452;-74
2023/06/25 06:57:06;;;;;;;1999.90;999.90;;;21.10;99.90;;;;;;4917377;29;20079;-74
2023/06/25 06:59:32;;;;;;;1999.90;999.90;;;21.10;99.90;;;;;;4916686;29;20070;-74
2023/06/25 07:01:58;;;;;;;1999.90;999.90;;;21.20;99.90;;;;;;4916988;29;20055;-74
2023/06/25 07:04:23;;;;;;;1999.90;999.90;;;21.20;99.90;;;;;;4917100;29;20051;-74
2023/06/25 07:06:49;;;;;;;1999.90;999.90;;;21.20;99.90;;;;;;4917196;29;20055;-74
2023/06/25 07:09:22;;;;;;;1999.90;999.90;;;21.30;99.90;;;;;;4915740;29;20127;-73
2023/06/25 07:11:48;;;;;;;1999.90;999.90;;;21.30;99.90;;;;;;4916953;29;20437;-73
2023/06/25 07:14:13;;;;;;;1999.90;999.90;;;21.40;99.90;;;;;;4915833;29;20060;-73
2023/06/25 07:16:41;;;;;;;1999.90;999.90;;;21.40;99.90;;;;;;4915524;29;20056;-73
2023/06/25 07:19:07;;;;;;;1999.90;999.90;;;21.50;99.90;;;;;;4900071;29;20059;-74
2023/06/25 07:21:33;;;;;;;1999.90;999.90;;;21.50;99.90;;;;;;4915861;29;20051;-74
2023/06/25 07:23:59;;;;;;;1999.90;999.90;;;21.50;99.90;;;;;;4916730;29;20087;-73
2023/06/25 07:26:25;;;;;;;1999.90;999.90;;;21.60;99.90;;;;;;4915632;29;20191;-73
2023/06/25 07:28:51;;;;;;;1999.90;999.90;;;21.70;99.90;;;;;;4916432;29;20420;-73
2023/06/25 07:31:17;;;;;;;1999.90;999.90;;;21.70;99.90;;;;;;4916739;29;20188;-74
2023/06/25 07:33:42;;;;;;;1999.90;999.90;;;21.70;99.90;;;;;;4916922;29;20044;-73
2023/06/25 07:36:08;;;;;;;1999.90;999.90;;;21.80;99.90;;;;;;4915760;29;20052;-73
2023/06/25 07:38:34;;;;;;;1999.90;999.90;;;21.80;99.90;;;;;;4916695;29;20071;-74
2023/06/25 07:40:59;;;;;;;1999.90;999.90;;;21.90;99.90;;;;;;4915671;29;20378;-73
2023/06/25 07:43:25;;;;;;;1999.90;999.90;;;21.90;99.90;;;;;;4915571;29;20063;-74
2023/06/25 07:45:51;;;;;;;1999.90;999.90;;;22.00;99.90;;;;;;4915897;29;20052;-74
2023/06/25 07:48:16;;;;;;;1999.90;999.90;;;22.10;99.90;;;;;;4914893;29;20108;-73
2023/06/25 07:50:42;;;;;;;1999.90;999.90;;;22.10;99.90;;;;;;4907903;29;20048;-74
2023/06/25 07:53:08;;;;;;;1999.90;999.90;;;22.20;99.90;;;;;;4910933;29;20480;-73
2023/06/25 07:55:44;;;;;;;1999.90;999.90;;;22.20;99.90;;;;;;4909361;29;20047;-74
2023/06/25 07:58:11;;;;;;;1999.90;999.90;;;22.30;99.90;;;;;;4909131;29;20119;-73
2023/06/25 08:00:37;;;;;;;1999.90;999.90;;;22.30;99.90;;;;;;4908823;29;20083;-73
2023/06/25 08:03:03;;;;;;;1999.90;999.90;;;22.40;99.90;;;;;;4907374;29;20080;-74
2023/06/25 08:05:29;;;;;;;1999.90;999.90;;;22.40;99.90;;;;;;4910622;29;20135;-74
2023/06/25 08:07:56;;;;;;;1999.90;999.90;;;22.50;99.90;;;;;;4889278;29;20127;-75
2023/06/25 08:10:23;;;;;;;1999.90;999.90;;;22.50;99.90;;;;;;4901002;29;20057;-75
2023/06/25 08:12:50;;;;;;;1999.90;999.90;;;22.60;99.90;;;;;;4901002;29;20053;-75
2023/06/25 08:15:15;;;;;;;1999.90;999.90;;;22.70;99.90;;;;;;4900799;29;20527;-74
2023/06/25 08:17:41;;;;;;;1999.90;999.90;;;22.70;99.90;;;;;;4900830;29;20049;-74
2023/06/25 08:20:07;;;;;;;1999.90;999.90;;;22.80;99.90;;;;;;4900793;29;20051;-74
2023/06/25 08:22:33;;;;;;;1999.90;999.90;;;22.90;99.90;;;;;;4884214;29;20084;-74
2023/06/25 08:24:59;;;;;;;1999.90;999.90;;;22.90;99.90;;;;;;4899363;29;20084;-74
2023/06/25 08:27:25;;;;;;;1999.90;999.90;;;23.00;99.90;;;;;;4899486;29;20080;-74
2023/06/25 08:29:50;;;;;;;1999.90;999.90;;;23.00;99.90;;;;;;4900291;29;20048;-74
2023/06/25 08:32:16;;;;;;;1999.90;999.90;;;23.00;99.90;;;;;;4884086;29;20488;-74
2023/06/25 08:34:41;;;;;;;1999.90;999.90;;;23.10;99.90;;;;;;4883715;29;20120;-74
2023/06/25 08:37:10;;;;;;;1999.90;999.90;;;23.20;99.90;;;;;;4899299;29;20060;-80
2023/06/25 08:39:35;;;;;;;1999.90;999.90;;;23.20;99.90;;;;;;4900296;29;20052;-75
2023/06/25 08:42:01;;;;;;;1999.90;999.90;;;23.30;99.90;;;;;;4883908;29;20056;-75
2023/06/25 08:44:27;;;;;;;1999.90;999.90;;;23.40;99.90;;;;;;4899353;29;20092;-76
2023/06/25 08:46:54;;;;;;;1999.90;999.90;;;23.40;99.90;;;;;;4900433;29;20450;-74
2023/06/25 08:49:24;;;;;;;1999.90;999.90;;;23.50;99.90;;;;;;4900245;29;20409;-74
2023/06/25 08:51:55;;;;;;;1999.90;999.90;;;23.60;99.90;;;;;;4883673;29;20048;-74
2023/06/25 08:54:21;;;;;;;1999.90;999.90;;;23.60;99.90;;;;;;4899460;29;20052;-73
2023/06/25 08:56:46;;;;;;;1999.90;999.90;;;23.70;99.90;;;;;;4908369;29;20044;-73
2023/06/25 08:59:12;;;;;;;1999.90;999.90;;;23.80;99.90;;;;;;4911138;29;20041;-73
2023/06/25 09:01:38;;;;;;;1999.90;999.90;;;23.80;99.90;;;;;;4910605;29;20052;-73
2023/06/25 09:04:03;;;;;;;1999.90;999.90;;;23.90;99.90;;;;;;4907507;29;20520;-73
2023/06/25 09:06:29;;;;;;;1999.90;999.90;;;23.90;99.90;;;;;;4908438;29;20055;-73
2023/06/25 09:08:55;;;;;;;1999.90;999.90;;;24.00;99.90;;;;;;4907275;29;20051;-72
2023/06/25 09:11:20;;;;;;;1999.90;999.90;;;24.00;99.90;;;;;;4910058;29;20049;-73
2023/06/25 09:13:46;;;;;;;1999.90;999.90;;;24.10;99.90;;;;;;4906731;29;20059;-73
2023/06/25 09:16:12;;;;;;;1999.90;999.90;;;24.20;99.90;;;;;;4910040;29;20045;-75
2023/06/25 09:18:38;;;;;;;1999.90;999.90;;;24.30;99.90;;;;;;4906912;29;20052;-75
2023/06/25 09:21:08;;;;;;;1999.90;999.90;;;24.30;99.90;;;;;;4909384;29;20513;-74
2023/06/25 09:23:36;;;;;;;1999.90;999.90;;;24.40;99.90;;;;;;4907409;29;20501;-75
2023/06/25 09:26:09;;;;;;;1999.90;999.90;;;24.40;99.90;;;;;;4908172;29;20048;-75
2023/06/25 09:28:48;;;;;;;1999.90;999.90;;;24.50;99.90;;;;;;4906453;29;20068;-75
2023/06/25 09:31:17;;;;;;;1999.90;999.90;;;24.50;99.90;;;;;;4907455;29;20135;-75
2023/06/25 09:33:51;;;;;;;1999.90;999.90;;;24.60;99.90;;;;;;4907395;29;20040;-74
2023/06/25 09:36:17;;;;;;;1999.90;999.90;;;24.70;99.90;;;;;;4909403;29;20053;-74
2023/06/25 09:38:46;;;;;;;1999.90;999.90;;;24.80;99.90;;;;;;4890865;29;20059;-74
2023/06/25 09:41:15;;;;;;;1999.90;999.90;;;24.90;99.90;;;;;;4909443;29;20127;-75
2023/06/25 09:43:43;;;;;;;1999.90;999.90;;;24.90;99.90;;;;;;4906181;29;20504;-75
2023/06/25 09:46:10;;;;;;;1999.90;999.90;;;25.00;99.90;;;;;;4910828;29;20048;-75
2023/06/25 09:48:37;;;;;;;1999.90;999.90;;;25.00;99.90;;;;;;4906514;29;20076;-74
2023/06/25 09:51:06;;;;;;;1999.90;999.90;;;25.10;99.90;;;;;;4909476;29;20047;-74
2023/06/25 09:53:38;;;;;;;1999.90;999.90;;;25.10;99.90;;;;;;4906910;29;20634;-75
2023/06/25 09:56:08;;;;;;;1999.90;999.90;;;25.10;99.90;;;;;;4907570;29;20131;-75
2023/06/25 09:58:34;;;;;;;1999.90;999.90;;;25.20;99.90;;;;;;4906320;29;20048;-76
2023/06/25 10:01:00;;;;;;;1999.90;999.90;;;25.20;99.90;;;;;;4908837;29;20057;-75
2023/06/25 10:03:26;;;;;;;1999.90;999.90;;;25.30;99.90;;;;;;4906639;29;20056;-75
2023/06/25 10:05:52;;;;;;;1999.90;999.90;;;25.30;99.90;;;;;;4907558;29;20076;-74
2023/06/25 10:08:19;;;;;;;1999.90;999.90;;;25.40;99.90;;;;;;4907518;29;20052;-75
2023/06/25 10:10:56;;;;;;;1999.90;999.90;;;25.40;99.90;;;;;;4908064;29;20053;-75
2023/06/25 10:13:22;;;;;;;1999.90;999.90;;;25.50;99.90;;;;;;4908515;29;20058;-75
2023/06/25 10:15:47;;;;;;;1999.90;999.90;;;25.50;99.90;;;;;;4909853;29;20044;-75
2023/06/25 10:18:23;;;;;;;1999.90;999.90;;;25.60;99.90;;;;;;4907085;29;20044;-75
2023/06/25 10:20:48;;;;;;;1999.90;999.90;;;25.60;99.90;;;;;;4908511;29;20052;-75
2023/06/25 10:23:21;;;;;;;1999.90;999.90;;;25.60;99.90;;;;;;4906694;29;20050;-75
2023/06/25 10:25:57;;;;;;;1999.90;999.90;;;25.70;99.90;;;;;;4907835;29;20062;-75
2023/06/25 10:28:34;;;;;;;1999.90;999.90;;;25.80;99.90;;;;;;4906706;29;20067;-76
2023/06/25 10:31:12;;;;;;;1999.90;999.90;;;25.80;99.90;;;;;;4907111;29;20421;-75
2023/06/25 10:33:38;;;;;;;1999.90;999.90;;;25.80;99.90;;;;;;4907136;29;20048;-75
2023/06/25 10:36:08;;;;;;;1999.90;999.90;;;25.80;99.90;;;;;;4908376;29;20052;-75
2023/06/25 10:38:34;;;;;;;1999.90;999.90;;;25.80;99.90;;;;;;4904572;29;20044;-77
2023/06/25 10:41:00;;;;;;;1999.90;999.90;;;25.90;99.90;;;;;;4908633;29;20055;-76
2023/06/25 10:43:26;;;;;;;1999.90;999.90;;;25.90;99.90;;;;;;4905003;29;21208;-75
2023/06/25 10:45:53;;;;;;;1999.90;999.90;;;26.00;99.90;;;;;;4907133;29;20054;-75
2023/06/25 10:48:20;;;;;;;1999.90;999.90;;;26.00;99.90;;;;;;4905295;29;20051;-75
2023/06/25 10:50:47;;;;;;;1999.90;999.90;;;26.10;99.90;;;;;;4907028;29;20505;-75
2023/06/25 10:53:15;;;;;;;1999.90;999.90;;;26.20;99.90;;;;;;4900687;29;20045;-76
2023/06/25 10:55:45;;;;;;;1999.90;999.90;;;26.30;99.90;;;;;;4907083;29;20055;-76
2023/06/25 10:58:21;;;;;;;1999.90;999.90;;;26.40;99.90;;;;;;4916525;29;20094;-76
2023/06/25 11:00:54;;;;;;;1999.90;999.90;;;26.40;99.90;;;;;;4916805;29;20048;-76
2023/06/25 11:03:19;;;;;;;1999.90;999.90;;;26.50;99.90;;;;;;4916086;29;20504;-75
2023/06/25 11:05:46;;;;;;;1999.90;999.90;;;26.60;99.90;;;;;;4916740;29;20191;-75
2023/06/25 11:08:13;;;;;;;1999.90;999.90;;;26.70;99.90;;;;;;4916689;29;20079;-76
2023/06/25 11:10:40;;;;;;;1999.90;999.90;;;26.80;99.90;;;;;;4916661;29;20048;-75
2023/06/25 11:13:12;;;;;;;1999.90;999.90;;;26.90;99.90;;;;;;4917918;29;20062;-75
2023/06/25 11:15:40;;;;;;;1999.90;999.90;;;27.00;99.90;;;;;;4930852;29;20131;-75
2023/06/25 11:18:08;;;;;;;1999.90;999.90;;;27.10;99.90;;;;;;4923129;29;20055;-74
2023/06/25 11:20:33;;;;;;;1999.90;999.90;;;27.10;99.90;;;;;;4936391;29;20052;-74
2023/06/25 11:23:01;;;;;;;1999.90;999.90;;;27.10;99.90;;;;;;4935159;29;20564;-75
2023/06/25 11:25:28;;;;;;;1999.90;999.90;;;27.10;99.90;;;;;;4939534;29;20127;-74
2023/06/25 11:28:20;;;;;;;1999.90;999.90;;;27.10;99.90;;;;;;4922390;29;20060;-75
2023/06/25 11:30:46;;;;;;;1999.90;999.90;;;27.20;99.90;;;;;;4936981;29;20059;-74
2023/06/25 11:33:17;;;;;;;1999.90;999.90;;;27.30;99.90;;;;;;4938365;29;20048;-74
2023/06/25 11:35:49;;;;;;;1999.90;999.90;;;27.30;99.90;;;;;;4939523;29;20043;-74
2023/06/25 11:38:28;;;;;;;;;;;27.40;99.90;;;;;;4939705;29;20506;-74
2023/06/25 11:40:56;;;;;;;1999.90;999.90;;;27.50;99.90;;;;;;4939538;29;19923;-74
2023/06/25 11:43:23;;;;;;;1999.90;999.90;;;27.60;99.90;;;;;;4939349;29;20127;-74
2023/06/25 11:45:49;;;;;;;1999.90;999.90;;;27.50;99.90;;;;;;4939128;29;20509;-74
2023/06/25 11:48:16;;;;;;;1999.90;999.90;;;27.50;99.90;;;;;;4939153;29;20043;-74
2023/06/25 11:50:48;;;;;;;1999.90;999.90;;;27.50;99.60;;;;;;4939157;29;20130;-73
2023/06/25 11:53:14;;;;;;;1999.90;999.90;;;27.50;99.70;;;;;;4939262;29;20115;-73
2023/06/25 11:55:40;;;;;;;1999.90;999.90;;;27.50;99.40;;;;;;4939187;29;20047;-73
2023/06/25 11:58:08;;;;;;;1999.90;999.90;;;27.50;99.20;;;;;;4937909;29;20047;-73